Time;durP1;ratioP1;P1;durP2;ratioP2;P2;SDS_P1;SDS_P2;PMS_P1;PMS_P2;Temp;Humidity;BMP_temperature;BMP_pressure;BME280_temperature;BME280_humidity;BME280_pressure;Samples;Min_cycle;Max_cycle;Signal;HPM_P1;HPM_P2
2024/01/17 00:01:48;;;;;;;6.13;3.63;;;;;;;17.64;39.89;100112.00;5042030;28;20035;-38
2024/01/17 00:04:14;;;;;;;7.72;3.47;;;;;;;17.62;39.99;100114.22;5048331;28;20394;-38
2024/01/17 00:06:40;;;;;;;5.40;2.80;;;;;;;17.59;39.95;100107.38;5043061;28;20036;-38
2024/01/17 00:09:05;;;;;;;4.60;3.13;;;;;;;17.57;40.05;100100.56;5043582;28;20053;-39
2024/01/17 00:11:31;;;;;;;4.22;3.00;;;;;;;17.54;40.04;100099.22;5038351;28;20537;-39
2024/01/17 00:13:56;;;;;;;6.03;3.88;;;;;;;17.51;40.08;100094.34;5041110;28;20041;-39
2024/01/17 00:16:22;;;;;;;4.70;3.35;;;;;;;17.48;40.00;100095.75;5042858;28;20075;-39
2024/01/17 00:18:48;;;;;;;5.55;3.00;;;;;;;17.45;40.11;100088.09;5044144;28;20398;-39
2024/01/17 00:21:14;;;;;;;7.70;3.17;;;;;;;17.44;40.09;100082.94;5041929;28;20023;-39
2024/01/17 00:23:39;;;;;;;7.05;3.25;;;;;;;17.42;40.16;100076.91;5041315;28;20032;-40
2024/01/17 00:26:05;;;;;;;4.50;2.88;;;;;;;17.39;40.14;100072.84;5040433;28;20363;-40
2024/01/17 00:28:31;;;;;;;6.63;3.20;;;;;;;17.37;40.30;100074.25;5036841;28;20144;-39
2024/01/17 00:30:57;;;;;;;6.68;3.50;;;;;;;17.33;40.21;100063.03;5032106;28;20530;-39
2024/01/17 00:33:22;;;;;;;7.25;3.33;;;;;;;17.31;40.19;100060.59;5046228;28;20078;-39
2024/01/17 00:35:48;;;;;;;5.93;3.38;;;;;;;17.30;40.15;100052.66;5062728;28;20067;-39
2024/01/17 00:38:13;;;;;;;6.03;3.10;;;;;;;17.29;40.29;100056.53;5042708;28;20028;-39
2024/01/17 00:40:39;;;;;;;8.30;3.72;;;;;;;17.29;40.13;100053.78;5042430;28;20271;-40
2024/01/17 00:43:05;;;;;;;6.90;3.58;;;;;;;17.27;40.20;100051.31;5043599;28;20017;-38
2024/01/17 00:45:30;;;;;;;3.92;3.25;;;;;;;17.26;40.31;100048.88;5042559;28;20032;-38
2024/01/17 00:47:55;;;;;;;4.20;2.88;;;;;;;17.24;40.59;100042.88;5043014;28;20033;-37
2024/01/17 00:50:22;;;;;;;5.57;3.33;;;;;;;17.23;40.17;100043.97;5045168;28;20020;-37
2024/01/17 00:52:47;;;;;;;4.55;3.30;;;;;;;17.21;40.35;100038.78;5047920;28;20045;-37
2024/01/17 00:55:12;;;;;;;7.20;3.63;;;;;;;17.20;40.37;100041.81;5040564;28;20025;-37
2024/01/17 00:57:38;;;;;;;6.00;3.55;;;;;;;17.16;40.25;100034.19;5050069;28;20035;-37
2024/01/17 01:00:04;;;;;;;5.35;3.35;;;;;;;17.14;40.39;100032.84;5041214;28;20190;-37
2024/01/17 01:02:30;;;;;;;5.75;3.30;;;;;;;17.12;40.42;100035.88;5042955;28;20033;-37
2024/01/17 01:04:55;;;;;;;5.43;3.35;;;;;;;17.10;40.47;100029.06;5031631;28;20025;-38
2024/01/17 01:07:21;;;;;;;7.05;3.13;;;;;;;17.08;40.52;100023.88;5041474;28;20101;-38
2024/01/17 01:09:46;;;;;;;5.35;3.60;;;;;;;17.07;40.39;100022.25;5041851;28;20116;-38
2024/01/17 01:12:11;;;;;;;4.97;3.40;;;;;;;17.05;40.40;100026.38;5041049;28;20120;-38
2024/01/17 01:14:37;;;;;;;5.20;3.55;;;;;;;17.02;40.25;100022.31;5037292;28;20086;-38
2024/01/17 01:17:03;;;;;;;5.68;3.58;;;;;;;17.00;40.24;100008.09;5065701;28;20090;-38
2024/01/17 01:19:28;;;;;;;6.25;3.15;;;;;;;16.98;40.46;100013.03;5041906;28;20085;-38
2024/01/17 01:21:53;;;;;;;5.97;3.50;;;;;;;16.96;40.51;100005.13;5040051;28;20028;-38
2024/01/17 01:24:19;;;;;;;7.05;3.63;;;;;;;16.95;40.51;100008.16;5036479;28;20277;-38
2024/01/17 01:26:44;;;;;;;5.55;3.33;;;;;;;16.93;40.46;100002.94;5030897;28;20063;-37
2024/01/17 01:29:10;;;;;;;5.93;3.45;;;;;;;16.92;40.57;100000.50;5029838;28;20033;-38
2024/01/17 01:31:35;;;;;;;7.05;3.53;;;;;;;16.90;40.47;99992.56;5036916;28;20418;-38
2024/01/17 01:34:01;;;;;;;5.32;3.50;;;;;;;16.88;40.42;99988.47;5035808;28;20016;-38
2024/01/17 01:36:26;;;;;;;5.68;3.50;;;;;;;16.85;40.74;99987.13;5036582;28;20033;-38
2024/01/17 01:38:52;;;;;;;5.05;3.10;;;;;;;16.83;40.52;99976.47;5056907;28;20094;-38
2024/01/17 01:41:17;;;;;;;6.00;3.13;;;;;;;16.83;40.62;99981.13;5040888;28;20028;-38
2024/01/17 01:43:42;;;;;;;6.95;3.28;;;;;;;16.81;40.64;99981.44;5039809;28;20106;-37
2024/01/17 01:46:13;;;;;;;8.18;3.67;;;;;;;16.79;40.66;99972.69;5040308;28;20083;-38
2024/01/17 01:48:40;;;;;;;6.80;3.35;;;;;;;16.78;40.57;99976.53;5038291;28;20449;-38
2024/01/17 01:51:06;;;;;;;5.30;3.35;;;;;;;16.76;40.65;99969.72;5028019;28;20368;-39
2024/01/17 01:53:32;;;;;;;4.35;3.45;;;;;;;16.74;40.57;99961.78;5037745;28;20036;-39
2024/01/17 01:55:58;;;;;;;6.95;3.33;;;;;;;16.73;40.67;99962.09;5033633;28;20289;-39
2024/01/17 01:58:24;;;;;;;6.00;3.30;;;;;;;16.73;40.75;99956.63;5039796;28;20762;-39
2024/01/17 02:00:51;;;;;;;5.50;3.20;;;;;;;16.71;40.71;99964.28;5024157;28;20245;-38
2024/01/17 02:03:16;;;;;;;5.47;3.40;;;;;;;16.69;40.65;99959.91;5040951;28;20375;-43
2024/01/17 02:05:42;;;;;;;5.63;3.35;;;;;;;16.69;40.69;99956.38;5041570;28;20032;-39
2024/01/17 02:08:08;;;;;;;4.75;3.22;;;;;;;16.67;40.70;99953.09;5040082;28;20532;-39
2024/01/17 02:10:34;;;;;;;4.60;3.08;;;;;;;16.64;40.56;99951.78;5033691;28;20056;-39
2024/01/17 02:12:59;;;;;;;6.75;3.42;;;;;;;16.64;40.70;99934.53;5040136;28;20481;-40
2024/01/17 02:15:25;;;;;;;4.25;2.92;;;;;;;16.63;40.73;99939.19;5041158;28;20040;-39
2024/01/17 02:17:50;;;;;;;8.02;3.30;;;;;;;16.61;40.60;99927.72;5035720;28;20496;-39
2024/01/17 02:20:16;;;;;;;6.82;3.50;;;;;;;16.60;40.64;99931.56;5036849;28;20056;-39
2024/01/17 02:22:41;;;;;;;6.07;3.67;;;;;;;16.59;40.62;99926.38;5021338;28;20036;-39
2024/01/17 02:25:07;;;;;;;5.97;3.42;;;;;;;16.54;40.79;99913.56;5043032;28;20636;-39
2024/01/17 02:27:32;;;;;;;4.88;3.50;;;;;;;16.55;40.72;99919.84;5041566;28;20029;-37
2024/01/17 02:29:57;;;;;;;5.22;3.67;;;;;;;16.55;40.66;99917.94;5039602;28;20474;-39
2024/01/17 02:32:23;;;;;;;5.35;3.38;;;;;;;16.54;40.68;99913.56;5040056;28;20033;-39
2024/01/17 02:34:49;;;;;;;5.85;3.70;;;;;;;16.52;40.72;99913.84;5069948;28;20488;-39
2024/01/17 02:37:15;;;;;;;5.85;3.67;;;;;;;16.52;40.81;99908.38;5040855;28;20029;-40
2024/01/17 02:39:40;;;;;;;5.40;3.63;;;;;;;16.51;40.85;99897.75;5045360;28;20360;-40
2024/01/17 02:42:06;;;;;;;4.85;3.55;;;;;;;16.50;40.84;99902.41;5042966;28;20535;-39
2024/01/17 02:44:31;;;;;;;6.68;3.92;;;;;;;16.49;40.72;99889.00;5037933;28;20029;-39
2024/01/17 02:46:56;;;;;;;7.30;3.47;;;;;;;16.49;40.73;99887.09;5044215;28;20536;-39
2024/01/17 02:49:22;;;;;;;6.05;3.65;;;;;;;16.48;40.76;99888.19;5044896;28;20036;-39
2024/01/17 02:51:47;;;;;;;6.13;3.45;;;;;;;16.47;40.85;99885.75;5042997;28;20029;-39
2024/01/17 02:54:13;;;;;;;6.13;3.70;;;;;;;16.44;40.80;99889.84;5040498;28;20059;-39
2024/01/17 02:56:39;;;;;;;6.90;4.03;;;;;;;16.42;40.76;99889.34;5075558;28;20029;-39
2024/01/17 02:59:04;;;;;;;7.07;4.00;;;;;;;16.41;40.83;99879.50;5047059;28;20060;-39
2024/01/17 03:01:29;;;;;;;7.57;4.28;;;;;;;16.39;40.71;99867.25;5022315;28;20032;-39
2024/01/17 03:03:55;;;;;;;5.22;3.60;;;;;;;16.39;40.85;99878.19;5045689;28;20112;-39
2024/01/17 03:06:20;;;;;;;6.95;3.78;;;;;;;16.38;40.86;99868.34;5043268;28;20041;-39
2024/01/17 03:08:46;;;;;;;5.65;3.50;;;;;;;16.36;40.83;99863.97;5044826;28;20489;-39
2024/01/17 03:11:11;;;;;;;7.40;3.95;;;;;;;16.36;41.09;99863.16;5038152;28;20432;-39
2024/01/17 03:13:36;;;;;;;6.70;4.13;;;;;;;16.35;40.76;99850.59;5039427;28;20029;-39
2024/01/17 03:16:02;;;;;;;7.28;4.53;;;;;;;16.33;40.78;99850.88;5044671;28;20116;-40
2024/01/17 03:18:27;;;;;;;6.57;4.20;;;;;;;16.33;40.80;99841.84;5044709;28;20044;-38
2024/01/17 03:20:52;;;;;;;7.18;4.00;;;;;;;16.32;40.71;99829.28;5043580;28;20473;-39
2024/01/17 03:23:18;;;;;;;7.15;4.22;;;;;;;16.31;40.86;99820.28;5043902;28;20028;-38
2024/01/17 03:25:43;;;;;;;5.03;3.92;;;;;;;16.30;40.72;99818.63;5040876;28;20024;-38
2024/01/17 03:28:09;;;;;;;6.28;4.05;;;;;;;16.30;40.82;99815.09;5042895;28;20028;-38
2024/01/17 03:30:36;;;;;;;7.53;4.47;;;;;;;16.29;40.77;99805.25;5044964;28;20033;-38
2024/01/17 03:33:03;;;;;;;6.53;3.80;;;;;;;16.27;40.71;99800.09;5041919;28;20163;-38
2024/01/17 03:35:28;;;;;;;6.43;4.15;;;;;;;16.27;40.64;99791.06;5040700;28;20029;-39
2024/01/17 03:37:54;;;;;;;6.40;4.18;;;;;;;16.26;40.73;99792.16;5047452;28;20034;-40
2024/01/17 03:40:19;;;;;;;6.82;3.92;;;;;;;16.24;40.75;99787.00;5049205;28;20037;-40
2024/01/17 03:42:44;;;;;;;5.22;3.83;;;;;;;16.22;40.70;99783.72;5042966;28;20059;-39
2024/01/17 03:45:10;;;;;;;4.50;3.78;;;;;;;16.21;40.82;99779.38;5043116;28;20029;-40
2024/01/17 03:47:36;;;;;;;6.43;4.03;;;;;;;16.20;40.77;99767.63;5043398;28;20061;-39
2024/01/17 03:50:01;;;;;;;6.85;4.13;;;;;;;16.19;40.72;99759.72;5049375;28;20167;-40
2024/01/17 03:52:26;;;;;;;5.28;3.88;;;;;;;16.19;40.82;99762.44;5043595;28;20071;-40
2024/01/17 03:54:52;;;;;;;6.40;3.90;;;;;;;16.17;40.83;99746.34;5043679;28;20074;-39
2024/01/17 03:57:17;;;;;;;6.35;3.90;;;;;;;16.15;40.72;99732.13;5043355;28;20056;-40
2024/01/17 03:59:43;;;;;;;5.97;4.00;;;;;;;16.13;40.75;99728.06;5040832;28;20324;-39
2024/01/17 04:02:09;;;;;;;5.40;3.92;;;;;;;16.12;40.86;99724.50;5042917;28;20244;-40
2024/01/17 04:04:34;;;;;;;5.68;3.97;;;;;;;16.12;40.83;99724.50;5041886;28;20429;-40
2024/01/17 04:06:59;;;;;;;6.78;3.95;;;;;;;16.10;40.72;99706.78;5044250;28;20205;-39
2024/01/17 04:09:25;;;;;;;4.97;3.90;;;;;;;16.10;40.80;99704.03;5052010;28;20105;-40
2024/01/17 04:11:50;;;;;;;8.68;3.67;;;;;;;16.09;40.74;99689.56;5042540;28;20540;-40
2024/01/17 04:14:16;;;;;;;7.30;4.20;;;;;;;16.08;40.84;99682.47;5038757;28;20119;-40
2024/01/17 04:16:41;;;;;;;5.85;3.75;;;;;;;16.07;40.79;99675.38;5041075;28;20031;-40
2024/01/17 04:19:10;;;;;;;4.80;3.60;;;;;;;16.06;40.66;99662.00;5037263;28;20434;-40
2024/01/17 04:21:36;;;;;;;6.72;4.18;;;;;;;16.03;40.88;99664.22;5043010;28;20029;-46
2024/01/17 04:24:01;;;;;;;7.80;3.80;;;;;;;16.02;40.87;99657.09;5038686;28;20034;-40
2024/01/17 04:26:27;;;;;;;7.22;4.30;;;;;;;16.01;40.83;99652.78;5042931;28;20083;-40
2024/01/17 04:28:53;;;;;;;7.03;3.92;;;;;;;16.01;40.76;99649.22;5042106;28;20575;-39
2024/01/17 04:31:23;;;;;;;5.78;3.75;;;;;;;16.01;40.67;99657.41;5042171;28;20055;-39
2024/01/17 04:33:49;;;;;;;6.78;4.07;;;;;;;16.00;40.91;99656.59;5064794;28;20038;-40
2024/01/17 04:36:17;;;;;;;6.32;3.97;;;;;;;15.99;40.75;99651.41;5029815;28;20386;-39
2024/01/17 04:38:43;;;;;;;6.00;3.55;;;;;;;15.97;40.81;99640.78;5042879;28;20084;-39
2024/01/17 04:41:12;;;;;;;7.25;4.38;;;;;;;15.96;40.92;99644.63;5034381;28;20040;-39
2024/01/17 04:43:42;;;;;;;6.18;3.92;;;;;;;15.95;40.89;99642.97;5037738;28;20110;-39
2024/01/17 04:46:09;;;;;;;8.43;4.07;;;;;;;15.94;40.82;99624.16;5034234;28;20559;-39
2024/01/17 04:48:35;;;;;;;5.47;3.50;;;;;;;15.93;41.00;99636.19;5035843;28;20043;-39
2024/01/17 04:51:01;;;;;;;6.68;4.10;;;;;;;15.94;41.00;99624.16;5037654;28;20033;-39
2024/01/17 04:53:27;;;;;;;6.28;3.83;;;;;;;15.98;41.01;99617.00;5040125;28;20027;-39
2024/01/17 04:55:53;;;;;;;5.78;3.80;;;;;;;16.09;40.80;99604.00;5040342;28;20565;-39
2024/01/17 04:58:18;;;;;;;5.30;3.53;;;;;;;16.17;40.63;99595.16;5039079;28;20489;-39
2024/01/17 05:00:46;;;;;;;6.53;3.55;;;;;;;16.28;40.52;99604.84;5041700;28;20056;-39
2024/01/17 05:03:12;;;;;;;5.88;3.70;;;;;;;16.39;40.58;99593.78;5037607;28;20112;-39
2024/01/17 05:05:37;;;;;;;5.95;3.50;;;;;;;16.49;40.39;99597.19;5031460;28;20120;-40
2024/01/17 05:08:04;;;;;;;6.10;3.60;;;;;;;16.58;40.35;99578.16;5035515;28;20489;-40
2024/01/17 05:10:30;;;;;;;4.93;3.45;;;;;;;16.68;40.13;99574.44;5037240;28;20433;-40
2024/01/17 05:12:55;;;;;;;5.28;3.55;;;;;;;16.78;40.14;99573.47;5038195;28;20442;-40
2024/01/17 05:15:20;;;;;;;4.97;3.38;;;;;;;16.87;40.00;99570.84;5039940;28;20106;-40
2024/01/17 05:17:46;;;;;;;4.22;3.42;;;;;;;16.94;40.06;99569.38;5056513;28;20036;-40
2024/01/17 05:20:13;;;;;;;5.93;3.42;;;;;;;17.03;39.99;99565.97;5040656;28;20090;-40
2024/01/17 05:22:39;;;;;;;5.43;3.42;;;;;;;17.13;39.96;99561.13;5037090;28;20027;-40
2024/01/17 05:25:06;;;;;;;5.68;3.42;;;;;;;17.20;39.95;99549.75;5040787;28;20024;-38
2024/01/17 05:27:32;;;;;;;5.93;3.40;;;;;;;17.27;39.96;99546.63;5034055;28;20409;-38
2024/01/17 05:29:58;;;;;;;6.65;3.80;;;;;;;17.33;39.83;99550.91;5041371;28;20036;-38
2024/01/17 05:32:23;;;;;;;5.32;3.55;;;;;;;17.40;39.88;99554.06;5036723;28;20047;-38
2024/01/17 05:34:50;;;;;;;5.63;3.70;;;;;;;17.45;39.83;99543.00;5039649;28;20033;-40
2024/01/17 05:37:16;;;;;;;6.13;3.50;;;;;;;17.51;39.91;99537.41;5039123;28;20033;-40
2024/01/17 05:39:41;;;;;;;5.55;3.30;;;;;;;17.56;39.71;99535.38;5034275;28;20074;-40
2024/01/17 05:42:07;;;;;;;5.88;2.97;;;;;;;17.61;39.71;99532.53;5039757;28;20114;-40
2024/01/17 05:44:32;;;;;;;3.90;3.03;;;;;;;17.68;39.80;99512.13;5034070;28;20025;-40
2024/01/17 05:46:57;;;;;;;5.10;3.22;;;;;;;17.74;39.52;99521.84;5039922;28;20032;-40
2024/01/17 05:49:23;;;;;;;4.95;2.92;;;;;;;17.79;39.55;99519.84;5030576;28;20482;-40
2024/01/17 05:51:49;;;;;;;6.45;3.47;;;;;;;17.86;39.61;99515.88;5036036;28;20029;-40
2024/01/17 05:54:14;;;;;;;5.20;3.25;;;;;;;17.92;39.60;99509.94;5036406;28;20550;-40
2024/01/17 05:56:40;;;;;;;6.22;3.28;;;;;;;17.97;39.54;99500.84;5038585;28;20029;-40
2024/01/17 05:59:05;;;;;;;5.00;2.92;;;;;;;18.02;39.46;99497.97;5036634;28;20102;-40
2024/01/17 06:01:31;;;;;;;5.03;3.38;;;;;;;18.07;39.44;99497.03;5039911;28;20246;-40
2024/01/17 06:03:56;;;;;;;7.20;3.38;;;;;;;18.08;39.36;99491.25;5042222;28;20029;-40
2024/01/17 06:06:21;;;;;;;4.22;2.97;;;;;;;18.10;39.31;99485.47;5039958;28;20028;-40
2024/01/17 06:08:47;;;;;;;5.20;3.08;;;;;;;18.12;39.43;99484.03;5039364;28;20290;-40
2024/01/17 06:11:12;;;;;;;7.05;3.45;;;;;;;18.15;39.16;99484.53;5038949;28;20057;-40
2024/01/17 06:13:38;;;;;;;6.05;3.20;;;;;;;18.16;39.12;99484.22;5067167;28;20128;-40
2024/01/17 06:16:03;;;;;;;6.95;3.50;;;;;;;18.17;39.11;99485.03;5038895;28;20037;-41
2024/01/17 06:18:28;;;;;;;5.55;3.25;;;;;;;18.18;38.98;99478.44;5038401;28;20452;-40
2024/01/17 06:20:54;;;;;;;5.38;3.00;;;;;;;18.18;38.97;99478.44;5033872;28;20037;-40
2024/01/17 06:23:19;;;;;;;5.53;2.92;;;;;;;18.16;39.05;99472.44;5024379;28;20104;-39
2024/01/17 06:25:45;;;;;;;5.20;3.10;;;;;;;18.15;38.89;99473.56;5045936;28;20643;-39
2024/01/17 06:28:10;;;;;;;5.13;3.08;;;;;;;18.14;38.94;99469.22;5041993;28;20377;-39
2024/01/17 06:30:36;;;;;;;5.25;3.00;;;;;;;18.13;38.75;99465.66;5038086;28;20081;-39
2024/01/17 06:33:02;;;;;;;6.10;3.35;;;;;;;18.11;38.92;99463.22;5028998;28;20022;-39
2024/01/17 06:35:27;;;;;;;5.15;3.13;;;;;;;18.12;38.89;99469.50;5037092;28;20036;-39
2024/01/17 06:37:53;;;;;;;6.65;3.03;;;;;;;18.11;38.94;99462.41;5040854;28;20033;-39
2024/01/17 06:40:18;;;;;;;5.72;3.00;;;;;;;18.10;39.01;99461.59;5040232;28;20120;-39
2024/01/17 06:42:43;;;;;;;5.43;3.30;;;;;;;18.11;38.70;99452.25;5028481;28;20318;-39
2024/01/17 06:45:10;;;;;;;5.40;3.55;;;;;;;18.12;38.82;99447.56;5029836;28;20312;-39
2024/01/17 06:47:35;;;;;;;4.05;3.10;;;;;;;18.11;39.00;99448.69;5037264;28;20032;-38
2024/01/17 06:50:01;;;;;;;5.90;3.25;;;;;;;18.12;39.08;99448.41;5038986;28;20025;-39
2024/01/17 06:52:26;;;;;;;6.68;3.25;;;;;;;18.12;38.86;99434.69;5022303;28;20044;-39
2024/01/17 06:54:52;;;;;;;5.63;3.28;;;;;;;18.13;38.84;99421.78;5039723;28;20033;-39
2024/01/17 06:57:17;;;;;;;7.18;3.20;;;;;;;18.15;38.59;99426.94;5039475;28;20409;-40
2024/01/17 06:59:43;;;;;;;6.53;3.78;;;;;;;18.12;38.74;99423.72;5041398;28;20024;-39
2024/01/17 07:02:08;;;;;;;6.32;3.50;;;;;;;18.15;38.79;99421.44;5033575;28;20032;-40
2024/01/17 07:04:34;;;;;;;4.35;3.20;;;;;;;18.13;38.62;99419.03;5034442;28;20398;-39
2024/01/17 07:06:59;;;;;;;5.55;3.40;;;;;;;18.14;38.67;99417.91;5040443;28;20025;-39
2024/01/17 07:09:24;;;;;;;5.85;3.55;;;;;;;18.13;38.51;99419.03;5036049;28;20052;-39
2024/01/17 07:11:50;;;;;;;6.68;3.72;;;;;;;18.13;38.62;99416.28;5033861;28;20084;-40
2024/01/17 07:14:15;;;;;;;7.75;3.60;;;;;;;18.11;38.60;99407.56;5036745;28;20021;-42
2024/01/17 07:16:40;;;;;;;5.90;3.60;;;;;;;18.10;38.80;99405.97;5034176;28;20029;-39
2024/01/17 07:19:06;;;;;;;5.47;3.72;;;;;;;18.09;38.52;99404.34;5035077;28;20035;-39
2024/01/17 07:21:31;;;;;;;5.65;3.70;;;;;;;18.06;38.67;99411.25;5044162;28;20082;-39
2024/01/17 07:23:57;;;;;;;6.38;3.50;;;;;;;18.05;38.57;99397.84;5043178;28;20119;-39
2024/01/17 07:26:22;;;;;;;6.47;3.80;;;;;;;18.03;38.72;99389.13;5044059;28;20029;-40
2024/01/17 07:28:48;;;;;;;5.90;3.63;;;;;;;18.01;38.42;99400.41;5043137;28;20497;-40
2024/01/17 07:31:13;;;;;;;6.57;3.67;;;;;;;18.00;38.56;99396.06;5035704;28;20100;-39
2024/01/17 07:33:39;;;;;;;6.38;3.50;;;;;;;18.01;38.57;99399.59;5041669;28;20091;-39
2024/01/17 07:36:05;;;;;;;9.50;3.47;;;;;;;18.01;38.66;99388.63;5040366;28;20028;-39
2024/01/17 07:38:30;;;;;;;7.07;3.70;;;;;;;18.01;38.67;99391.38;5042917;28;20079;-40
2024/01/17 07:40:56;;;;;;;6.78;3.80;;;;;;;18.01;38.67;99386.69;5043196;28;20040;-40
2024/01/17 07:43:22;;;;;;;6.90;3.65;;;;;;;18.02;38.54;99395.75;5034379;28;20445;-40
2024/01/17 07:45:47;;;;;;;6.47;3.45;;;;;;;18.01;38.52;99392.16;5041445;28;20120;-40
2024/01/17 07:48:13;;;;;;;6.07;3.97;;;;;;;18.02;38.63;99391.06;5043506;28;20088;-40
2024/01/17 07:50:39;;;;;;;7.00;3.97;;;;;;;18.03;38.52;99386.41;5034833;28;20060;-40
2024/01/17 07:53:07;;;;;;;5.10;3.63;;;;;;;18.03;38.56;99383.66;5040199;28;20460;-40
2024/01/17 07:55:32;;;;;;;5.72;3.35;;;;;;;18.04;38.62;99386.06;5035228;28;20427;-39
2024/01/17 07:57:59;;;;;;;5.78;3.85;;;;;;;18.05;38.52;99373.16;5038112;28;20074;-39
2024/01/17 08:00:25;;;;;;;6.10;3.80;;;;;;;18.04;38.72;99371.56;5042195;28;20114;-38
2024/01/17 08:02:50;;;;;;;8.50;3.38;;;;;;;18.05;38.58;99370.44;5043529;28;20033;-40
2024/01/17 08:05:15;;;;;;;5.93;3.38;;;;;;;18.05;38.62;99367.69;5041454;28;20032;-40
2024/01/17 08:07:41;;;;;;;8.55;3.30;;;;;;;18.03;38.57;99357.03;5039718;28;20781;-41
2024/01/17 08:10:06;;;;;;;5.97;3.80;;;;;;;18.02;38.66;99349.13;5041863;28;20017;-41
2024/01/17 08:12:32;;;;;;;9.18;4.05;;;;;;;18.02;38.66;99344.44;5043318;28;20124;-41
2024/01/17 08:14:57;;;;;;;7.95;3.92;;;;;;;18.01;38.56;99344.78;5041423;28;20056;-40
2024/01/17 08:17:23;;;;;;;4.88;3.30;;;;;;;18.00;38.51;99338.50;5040809;28;20282;-40
2024/01/17 08:19:48;;;;;;;6.50;3.55;;;;;;;17.98;38.62;99326.19;5043358;28;20509;-39
2024/01/17 08:22:13;;;;;;;7.30;4.00;;;;;;;17.98;38.60;99337.97;5044092;28;20078;-39
2024/01/17 08:24:40;;;;;;;5.20;3.40;;;;;;;17.98;38.57;99328.94;5040556;28;20119;-39
2024/01/17 08:27:05;;;;;;;9.25;3.80;;;;;;;17.96;38.58;99332.81;5034639;28;20629;-40
2024/01/17 08:29:31;;;;;;;5.72;3.70;;;;;;;17.96;38.36;99330.09;5036164;28;20163;-39
2024/01/17 08:31:56;;;;;;;6.15;4.00;;;;;;;17.93;38.50;99325.19;5035464;28;20041;-39
2024/01/17 08:34:22;;;;;;;8.43;3.80;;;;;;;17.93;38.52;99316.97;5033769;28;20017;-39
2024/01/17 08:36:47;;;;;;;7.57;3.55;;;;;;;17.92;38.39;99320.03;5040932;28;20278;-39
2024/01/17 08:39:15;;;;;;;8.57;4.25;;;;;;;17.89;38.51;99317.88;5040380;28;20469;-39
2024/01/17 08:41:45;;;;;;;6.38;4.00;;;;;;;17.88;38.39;99314.34;5042368;28;20028;-40
2024/01/17 08:44:11;;;;;;;8.88;4.15;;;;;;;17.85;38.49;99312.22;5042230;28;20028;-39
2024/01/17 08:46:46;;;;;;;5.93;4.10;;;;;;;17.84;38.75;99307.06;5038659;28;20512;-39
2024/01/17 08:49:12;;;;;;;9.52;3.83;;;;;;;17.81;38.30;99306.56;5033052;28;20030;-39
2024/01/17 08:51:37;;;;;;;8.27;4.20;;;;;;;17.80;38.38;99299.47;5069656;28;20036;-39
2024/01/17 08:54:06;;;;;;;7.47;3.67;;;;;;;17.79;38.50;99294.28;5038890;28;20402;-39
2024/01/17 08:56:32;;;;;;;7.43;3.80;;;;;;;17.77;38.35;99300.09;5036301;28;20267;-39
2024/01/17 08:58:58;;;;;;;6.60;3.67;;;;;;;17.75;38.45;99296.84;5040680;28;20531;-40
2024/01/17 09:01:23;;;;;;;5.45;3.67;;;;;;;17.73;38.26;99301.84;5041108;28;20024;-39
2024/01/17 09:03:49;;;;;;;5.90;3.85;;;;;;;17.71;38.34;99298.59;5032659;28;20025;-39
2024/01/17 09:06:14;;;;;;;5.18;3.72;;;;;;;17.70;38.25;99305.19;5034495;28;20378;-39
2024/01/17 09:08:40;;;;;;;5.63;3.58;;;;;;;17.68;38.58;99296.47;5035037;28;20025;-40
2024/01/17 09:11:08;;;;;;;8.73;3.83;;;;;;;17.67;38.45;99294.88;5037538;28;20048;-39
2024/01/17 09:13:34;;;;;;;5.90;3.53;;;;;;;17.67;38.29;99285.81;5039939;28;20048;-39
2024/01/17 09:16:00;;;;;;;7.40;3.83;;;;;;;17.67;38.34;99281.19;5041448;28;20033;-39
2024/01/17 09:18:25;;;;;;;5.63;3.42;;;;;;;17.68;38.25;99279.22;5042117;28;20108;-39
2024/01/17 09:20:51;;;;;;;6.93;3.80;;;;;;;17.70;38.47;99282.47;5039370;28;20115;-39
2024/01/17 09:23:16;;;;;;;6.97;3.42;;;;;;;17.68;38.33;99273.75;5040579;28;20028;-39
2024/01/17 09:25:42;;;;;;;6.13;4.05;;;;;;;17.70;38.35;99268.78;5036189;28;20021;-39
2024/01/17 09:28:09;;;;;;;6.28;3.55;;;;;;;17.71;38.43;99262.19;5025821;28;20036;-40
2024/01/17 09:30:34;;;;;;;6.55;3.50;;;;;;;17.73;38.41;99268.13;5033487;28;20468;-39
2024/01/17 09:33:00;;;;;;;6.40;3.95;;;;;;;17.74;38.42;99261.53;5035280;28;20030;-39
2024/01/17 09:35:25;;;;;;;5.75;3.50;;;;;;;17.76;38.12;99248.34;5036869;28;20059;-39
2024/01/17 09:37:52;;;;;;;6.15;3.85;;;;;;;17.76;38.31;99251.88;5038270;28;20198;-40
2024/01/17 09:40:17;;;;;;;5.68;3.50;;;;;;;17.79;38.31;99247.69;5034428;28;20051;-39
2024/01/17 09:42:42;;;;;;;6.18;3.20;;;;;;;17.80;38.27;99252.06;5036077;28;20021;-39
2024/01/17 09:45:09;;;;;;;8.82;3.63;;;;;;;17.82;38.32;99258.06;5038222;28;20032;-40
2024/01/17 09:47:35;;;;;;;4.88;3.35;;;;;;;17.85;38.37;99259.34;5040434;28;20431;-39
2024/01/17 09:50:01;;;;;;;6.22;3.78;;;;;;;17.85;38.26;99251.13;5034843;28;20036;-39
2024/01/17 09:52:26;;;;;;;6.15;3.88;;;;;;;17.86;38.31;99245.31;5039724;28;20044;-39
2024/01/17 09:54:55;;;;;;;5.93;3.63;;;;;;;17.88;38.34;99255.97;5034058;28;20033;-38
2024/01/17 09:57:24;;;;;;;6.53;3.90;;;;;;;17.90;38.31;99251.00;5045182;28;20367;-38
2024/01/17 10:00:09;;;;;;;5.97;3.63;;;;;;;17.91;38.22;99247.13;5039442;28;20485;-38
2024/01/17 10:02:38;;;;;;;5.55;3.75;;;;;;;17.93;38.27;99253.13;5039218;28;20317;-38
2024/01/17 10:05:09;;;;;;;11.30;3.97;;;;;;;17.96;38.37;99255.25;5037756;28;20033;-38
2024/01/17 10:07:36;;;;;;;6.35;3.72;;;;;;;17.96;38.30;99236.88;5040998;28;20020;-37
2024/01/17 10:10:01;;;;;;;7.30;3.72;;;;;;;17.98;38.17;99235.72;5062440;28;20175;-38
2024/01/17 10:12:27;;;;;;;7.60;3.30;;;;;;;18.00;38.21;99233.50;5036634;28;20481;-37
2024/01/17 10:14:52;;;;;;;4.78;3.30;;;;;;;17.99;38.35;99235.44;5040084;28;20044;-39
2024/01/17 10:17:19;;;;;;;5.35;3.25;;;;;;;17.99;38.21;99227.22;5038989;28;20515;-38
2024/01/17 10:19:44;;;;;;;6.00;3.55;;;;;;;17.99;38.35;99219.00;5037720;28;20041;-38
2024/01/17 10:22:10;;;;;;;7.03;3.58;;;;;;;17.99;38.19;99220.91;5041161;28;20029;-38
2024/01/17 10:24:37;;;;;;;6.22;3.30;;;;;;;17.98;38.19;99216.53;5039974;28;20115;-38
2024/01/17 10:27:09;;;;;;;7.70;3.67;;;;;;;17.96;38.12;99208.66;5062931;28;20559;-38
2024/01/17 10:29:39;;;;;;;7.97;3.60;;;;;;;17.95;38.17;99204.28;5034685;28;20078;-38
2024/01/17 10:32:05;;;;;;;4.97;3.70;;;;;;;17.94;38.12;99208.16;5032010;28;20051;-38
2024/01/17 10:34:30;;;;;;;5.85;3.70;;;;;;;17.93;38.23;99204.56;5038616;28;20461;-40
2024/01/17 10:36:56;;;;;;;5.40;3.47;;;;;;;17.92;38.27;99202.94;5036380;28;20063;-40
2024/01/17 10:39:22;;;;;;;4.47;3.30;;;;;;;17.93;38.18;99199.09;5036441;28;20478;-40
2024/01/17 10:41:49;;;;;;;7.50;3.75;;;;;;;17.93;38.22;99195.56;5032013;28;20248;-40
2024/01/17 10:44:17;;;;;;;4.68;3.45;;;;;;;17.94;38.22;99183.47;5035499;28;20439;-40
2024/01/17 10:46:43;;;;;;;5.20;3.67;;;;;;;17.94;38.35;99183.47;5033563;28;20161;-38
2024/01/17 10:49:08;;;;;;;5.13;3.20;;;;;;;17.94;38.18;99180.75;5038019;28;20490;-39
2024/01/17 10:51:35;;;;;;;5.53;3.40;;;;;;;17.95;38.20;99177.69;5033797;28;20104;-39
2024/01/17 10:54:01;;;;;;;5.03;3.60;;;;;;;17.95;38.20;99171.38;5040568;28;20028;-39
2024/01/17 10:56:29;;;;;;;6.82;3.35;;;;;;;17.97;38.21;99169.16;5043225;28;20029;-39
2024/01/17 10:58:55;;;;;;;186.00;10.05;;;;;;;17.99;37.98;99164.16;5042185;28;20083;-40
2024/01/17 11:01:25;;;;;;;14.50;3.30;;;;;;;17.99;38.76;99163.34;5045537;28;20028;-38
2024/01/17 11:03:56;;;;;;;7.28;3.47;;;;;;;18.02;39.16;99163.53;5042909;28;20056;-38
2024/01/17 11:06:22;;;;;;;8.32;3.40;;;;;;;18.05;39.20;99167.56;5074130;28;20029;-38
2024/01/17 11:08:48;;;;;;;7.22;3.30;;;;;;;18.08;39.24;99155.97;5036641;28;20033;-37
2024/01/17 11:11:15;;;;;;;7.18;3.63;;;;;;;18.10;39.36;99153.72;5043887;28;20035;-38
2024/01/17 11:13:42;;;;;;;9.32;3.65;;;;;;;18.11;39.33;99144.34;5041891;28;20057;-42
2024/01/17 11:16:10;;;;;;;8.48;3.55;;;;;;;18.14;39.13;99148.41;5045497;28;20063;-39
2024/01/17 11:18:37;;;;;;;4.82;3.08;;;;;;;18.18;39.01;99141.97;5040598;28;20216;-39
2024/01/17 11:21:04;;;;;;;8.05;3.80;;;;;;;18.20;38.81;99138.91;5036679;28;20028;-39
2024/01/17 11:23:50;;;;;;;6.10;3.63;;;;;;;18.23;38.86;99138.25;5037497;28;20040;-39
2024/01/17 11:26:22;;;;;;;7.30;3.35;;;;;;;18.25;38.52;99134.06;5038214;28;20021;-39